createdAt,value
2017-12-01T00:01:55.680Z,0.80
2017-12-01T00:04:23.175Z,0.80
2017-12-01T00:06:51.468Z,0.80
2017-12-01T00:09:18.960Z,0.70
2017-12-01T00:11:46.446Z,0.80
2017-12-01T00:14:14.758Z,0.80
2017-12-01T00:16:42.244Z,0.70
2017-12-01T00:19:09.804Z,0.80
2017-12-01T00:21:37.307Z,0.70
2017-12-01T00:24:05.563Z,0.60
2017-12-01T00:26:33.084Z,0.60
2017-12-01T00:29:00.591Z,0.70
2017-12-01T00:31:28.845Z,0.60
2017-12-01T00:33:56.347Z,0.70
2017-12-01T00:36:24.614Z,0.70
2017-12-01T00:38:52.859Z,0.70
2017-12-01T00:41:20.344Z,0.70
2017-12-01T00:43:48.626Z,0.70
2017-12-01T00:46:16.908Z,0.70
2017-12-01T00:48:45.211Z,0.70
2017-12-01T00:51:12.746Z,0.60
2017-12-01T00:53:41.026Z,0.70
2017-12-01T00:56:08.529Z,0.70
2017-12-01T00:58:36.065Z,0.70
2017-12-01T01:01:03.563Z,0.80
2017-12-01T01:03:31.192Z,0.70
2017-12-01T01:05:58.716Z,0.70
2017-12-01T01:08:26.968Z,0.70
2017-12-01T01:10:55.236Z,0.70
2017-12-01T01:13:22.838Z,0.70
2017-12-01T01:15:50.330Z,0.70
2017-12-01T01:18:17.818Z,0.70
2017-12-01T01:20:46.098Z,0.70
2017-12-01T01:23:15.099Z,0.70
2017-12-01T01:25:43.364Z,0.70
2017-12-01T01:28:10.964Z,0.70
2017-12-01T01:30:38.452Z,0.70
2017-12-01T01:33:05.944Z,0.70
2017-12-01T01:35:33.461Z,0.70
2017-12-01T01:38:01.013Z,0.70
2017-12-01T01:40:28.569Z,0.70
2017-12-01T01:42:56.101Z,0.70
2017-12-01T01:45:24.387Z,0.70
2017-12-01T01:47:51.873Z,0.70
2017-12-01T01:50:19.393Z,0.70
2017-12-01T01:52:47.656Z,0.80
2017-12-01T01:55:15.930Z,0.70
2017-12-01T01:57:43.444Z,0.70
2017-12-01T02:00:10.941Z,0.70
2017-12-01T02:02:38.438Z,0.80
2017-12-01T02:05:05.967Z,0.80
2017-12-01T02:07:34.224Z,0.80
2017-12-01T02:10:01.737Z,0.70
2017-12-01T02:12:29.273Z,0.80
2017-12-01T02:14:57.563Z,0.70
2017-12-01T02:17:25.047Z,0.70
2017-12-01T02:19:52.560Z,0.80
2017-12-01T02:22:20.821Z,0.80
2017-12-01T02:24:48.313Z,0.80
2017-12-01T02:27:15.821Z,0.80
2017-12-01T02:29:43.304Z,0.80
2017-12-01T02:32:11.580Z,0.80
2017-12-01T02:34:39.848Z,0.80
2017-12-01T02:37:07.350Z,0.70
2017-12-01T02:39:34.892Z,0.80
2017-12-01T02:42:02.399Z,0.70
2017-12-01T02:44:29.892Z,0.80
2017-12-01T02:46:58.180Z,0.80
2017-12-01T02:49:26.456Z,0.80
2017-12-01T02:51:54.726Z,0.80
2017-12-01T02:54:22.971Z,0.80
2017-12-01T02:56:50.561Z,0.70
2017-12-01T02:59:18.063Z,0.80
2017-12-01T03:01:45.561Z,0.80
2017-12-01T03:04:13.072Z,0.80
2017-12-01T03:06:40.602Z,0.80
2017-12-01T03:09:08.860Z,0.80
2017-12-01T03:11:37.129Z,0.80
2017-12-01T03:14:04.721Z,0.80
2017-12-01T03:16:32.223Z,0.80
2017-12-01T03:18:59.788Z,0.80
2017-12-01T03:21:27.397Z,0.80
2017-12-01T03:23:55.654Z,0.90
2017-12-01T03:26:23.911Z,0.90
2017-12-01T03:28:51.396Z,0.90
2017-12-01T03:31:19.689Z,0.80
2017-12-01T03:33:47.233Z,0.80
2017-12-01T03:36:15.506Z,0.80
2017-12-01T03:38:43.918Z,0.80
2017-12-01T03:41:11.452Z,0.70
2017-12-01T03:43:39.739Z,0.80
2017-12-01T03:46:07.293Z,0.70
2017-12-01T03:48:34.849Z,0.80
2017-12-01T03:51:03.126Z,0.70
2017-12-01T03:53:30.624Z,0.70
2017-12-01T03:55:58.144Z,0.70
2017-12-01T03:58:25.627Z,0.70
2017-12-01T04:00:53.136Z,0.80
2017-12-01T04:03:20.616Z,0.80
2017-12-01T04:05:48.889Z,0.70
2017-12-01T04:08:17.164Z,0.70
2017-12-01T04:10:45.608Z,0.80
2017-12-01T04:13:13.208Z,0.70
2017-12-01T04:15:41.486Z,0.70
2017-12-01T04:18:09.841Z,0.60
2017-12-01T04:20:37.420Z,0.60
2017-12-01T04:23:05.706Z,0.60
2017-12-01T04:25:33.209Z,0.60
2017-12-01T04:28:00.725Z,0.70
2017-12-01T04:30:28.294Z,0.70
2017-12-01T04:32:55.776Z,0.60
2017-12-01T04:35:23.298Z,0.60
2017-12-01T04:37:51.548Z,0.60
2017-12-01T04:40:19.832Z,0.70
2017-12-01T04:42:48.113Z,0.70
2017-12-01T04:45:16.377Z,0.70
2017-12-01T04:47:44.665Z,0.70
2017-12-01T04:50:12.944Z,0.70
2017-12-01T04:52:41.192Z,0.60
2017-12-01T04:55:08.779Z,0.60
2017-12-01T04:57:37.068Z,0.60
2017-12-01T05:00:04.624Z,0.60
2017-12-01T05:02:32.186Z,0.60
2017-12-01T05:04:59.685Z,0.50
2017-12-01T05:07:27.188Z,0.60
2017-12-01T05:09:55.498Z,0.50
2017-12-01T05:12:23.061Z,0.50
2017-12-01T05:14:50.594Z,0.50
2017-12-01T05:17:18.889Z,0.50
2017-12-01T05:19:46.389Z,0.50
2017-12-01T05:22:14.706Z,0.40
2017-12-01T05:24:42.206Z,0.40
2017-12-01T05:27:09.699Z,0.40
2017-12-01T05:29:37.294Z,0.40
2017-12-01T05:32:04.794Z,0.50
2017-12-01T05:34:32.283Z,0.50
2017-12-01T05:37:00.551Z,0.40
2017-12-01T05:39:29.544Z,0.40
2017-12-01T05:41:57.124Z,0.40
2017-12-01T05:44:24.623Z,0.40
2017-12-01T05:46:52.129Z,0.40
2017-12-01T05:49:19.604Z,0.40
2017-12-01T05:51:47.166Z,0.40
2017-12-01T05:54:14.668Z,0.30
2017-12-01T05:56:42.160Z,0.30
2017-12-01T05:59:10.455Z,0.30
2017-12-01T06:01:37.965Z,0.30
2017-12-01T06:04:05.466Z,0.30
2017-12-01T06:06:33.729Z,0.20
2017-12-01T06:09:02.034Z,0.20
2017-12-01T06:11:29.532Z,0.20
2017-12-01T06:13:57.027Z,0.20
2017-12-01T06:16:25.316Z,0.10
2017-12-01T06:18:53.563Z,0.10
2017-12-01T06:21:21.092Z,0.10
2017-12-01T06:23:48.637Z,0.10
2017-12-01T06:26:16.156Z,0.20
2017-12-01T06:28:44.414Z,0.20
2017-12-01T06:31:12.004Z,0.20
2017-12-01T06:33:40.288Z,0.10
2017-12-01T06:36:07.790Z,0.10
2017-12-01T06:38:35.310Z,0.10
2017-12-01T06:41:02.825Z,0.10
2017-12-01T06:43:31.831Z,0.10
2017-12-01T06:46:00.136Z,0.10
2017-12-01T06:48:27.630Z,0.10
2017-12-01T06:50:55.184Z,0.10
2017-12-01T06:53:22.668Z,0.10
2017-12-01T06:55:50.163Z,0.20
2017-12-01T06:58:18.412Z,0.20
2017-12-01T07:00:46.673Z,0.20
2017-12-01T07:03:14.164Z,0.20
2017-12-01T07:05:42.420Z,0.20
2017-12-01T07:08:10.721Z,0.10
2017-12-01T07:10:38.225Z,0.10
2017-12-01T07:13:05.731Z,0.10
2017-12-01T07:15:34.009Z,0.10
2017-12-01T07:18:02.790Z,0.20
2017-12-01T07:20:31.061Z,0.20
2017-12-01T07:22:59.367Z,0.90
2017-12-01T07:25:26.861Z,0.90
2017-12-01T07:27:54.369Z,0.80
2017-12-01T07:30:22.640Z,0.50
2017-12-01T07:32:50.915Z,0.40
2017-12-01T07:35:19.197Z,0.40
2017-12-01T07:37:47.468Z,0.40
2017-12-01T07:40:16.617Z,0.40
2017-12-01T07:42:44.104Z,0.40
2017-12-01T07:45:14.052Z,0.40
2017-12-01T07:47:42.295Z,0.40
2017-12-01T07:50:11.304Z,0.40
2017-12-01T07:52:39.551Z,0.40
2017-12-01T07:55:07.041Z,0.40
2017-12-01T07:57:35.305Z,0.40
2017-12-01T08:00:03.580Z,0.40
2017-12-01T08:02:32.579Z,0.40
2017-12-01T08:05:00.065Z,0.40
2017-12-01T08:07:42.440Z,0.50
2017-12-01T08:10:09.937Z,0.50
2017-12-01T08:12:37.438Z,0.60
2017-12-01T08:15:04.960Z,0.60
2017-12-01T08:17:32.451Z,0.60
2017-12-01T08:19:59.956Z,0.60
2017-12-01T08:22:39.201Z,0.60
2017-12-01T08:25:18.692Z,0.60
2017-12-01T08:27:46.218Z,0.70
2017-12-01T08:30:13.729Z,0.70
2017-12-01T08:32:42.044Z,0.60
2017-12-01T08:35:09.597Z,0.50
2017-12-01T08:37:37.085Z,0.50
2017-12-01T08:40:04.580Z,0.40
2017-12-01T08:42:32.840Z,0.70
2017-12-01T08:45:01.098Z,0.70
2017-12-01T08:47:28.600Z,0.80
2017-12-01T08:49:56.860Z,1.00
2017-12-01T08:52:24.367Z,1.00
2017-12-01T08:54:51.869Z,1.10
2017-12-01T08:57:19.370Z,1.10
2017-12-01T08:59:46.954Z,0.90
2017-12-01T09:02:14.448Z,0.80
2017-12-01T09:04:41.936Z,0.80
2017-12-01T09:07:09.423Z,0.80
2017-12-01T09:09:36.921Z,0.70
2017-12-01T09:12:04.442Z,0.80
2017-12-01T09:14:31.968Z,1.00
2017-12-01T09:16:59.487Z,1.20
2017-12-01T09:19:26.985Z,1.40
2017-12-01T09:21:54.500Z,1.40
2017-12-01T09:24:22.021Z,1.50
2017-12-01T09:26:49.521Z,1.70
2017-12-01T09:29:17.012Z,1.90
2017-12-01T09:31:45.457Z,2.10
2017-12-01T09:34:12.988Z,2.10
2017-12-01T09:36:40.504Z,2.30
2017-12-01T09:39:08.792Z,2.40
2017-12-01T09:41:36.304Z,2.40
2017-12-01T09:44:03.840Z,2.40
2017-12-01T09:46:31.380Z,2.30
2017-12-01T09:48:58.900Z,2.30
2017-12-01T09:51:27.189Z,2.40
2017-12-01T09:53:55.449Z,2.30
2017-12-01T09:56:22.964Z,2.30
2017-12-01T09:58:50.467Z,2.40
2017-12-01T10:01:18.739Z,2.40
2017-12-01T10:03:46.262Z,2.30
2017-12-01T10:06:13.771Z,2.50
2017-12-01T10:08:42.049Z,2.40
2017-12-01T10:11:10.328Z,2.50
2017-12-01T10:13:38.617Z,2.50
2017-12-01T10:16:06.141Z,2.50
2017-12-01T10:18:33.647Z,2.60
2017-12-01T10:21:01.216Z,2.60
2017-12-01T10:23:28.707Z,2.60
2017-12-01T10:25:56.210Z,2.60
2017-12-01T10:28:23.719Z,2.60
2017-12-01T10:30:51.225Z,2.60
2017-12-01T10:33:18.730Z,2.40
2017-12-01T10:35:46.240Z,2.40
2017-12-01T10:38:13.748Z,2.30
2017-12-01T10:40:42.026Z,2.20
2017-12-01T10:43:09.543Z,2.20
2017-12-01T10:45:37.071Z,2.30
2017-12-01T10:48:05.951Z,2.30
2017-12-01T10:50:33.469Z,2.30
2017-12-01T10:53:01.738Z,2.10
2017-12-01T10:55:29.262Z,2.10
2017-12-01T10:57:57.561Z,2.20
2017-12-01T11:00:25.074Z,2.20
2017-12-01T11:02:52.563Z,2.30
2017-12-01T11:05:20.837Z,2.50
2017-12-01T11:07:49.096Z,2.70
2017-12-01T11:10:16.602Z,2.60
2017-12-01T11:12:44.151Z,2.70
2017-12-01T11:15:11.661Z,2.70
2017-12-01T11:17:39.150Z,2.70
2017-12-01T11:20:06.659Z,2.70
2017-12-01T11:22:34.184Z,2.70
2017-12-01T11:25:01.724Z,2.70
2017-12-01T11:27:29.294Z,2.90
2017-12-01T11:29:56.795Z,3.20
2017-12-01T11:32:24.347Z,3.30
2017-12-01T11:34:51.999Z,3.20
2017-12-01T11:37:19.549Z,3.10
2017-12-01T11:39:47.084Z,3.20
2017-12-01T11:42:14.596Z,3.30
2017-12-01T11:44:42.120Z,3.30
2017-12-01T11:47:09.623Z,3.20
2017-12-01T11:49:37.125Z,3.30
2017-12-01T11:52:04.723Z,3.30
2017-12-01T11:54:32.213Z,3.30
2017-12-01T11:56:59.708Z,3.30
2017-12-01T11:59:27.218Z,3.20
2017-12-01T12:01:54.733Z,3.30
2017-12-01T12:04:22.235Z,3.40
2017-12-01T12:06:50.094Z,3.40
2017-12-01T12:09:17.589Z,3.30
2017-12-01T12:11:45.843Z,3.30
2017-12-01T12:14:13.329Z,3.30
2017-12-01T12:16:40.849Z,3.20
2017-12-01T12:19:08.336Z,3.10
2017-12-01T12:21:36.624Z,3.10
2017-12-01T12:24:04.171Z,3.10
2017-12-01T12:26:32.457Z,3.10
2017-12-01T12:29:00.744Z,3.20
2017-12-01T12:31:28.290Z,3.20
2017-12-01T12:33:55.784Z,3.10
2017-12-01T12:36:23.296Z,3.10
2017-12-01T12:38:51.555Z,3.10
2017-12-01T12:41:19.055Z,3.10
2017-12-01T12:43:46.560Z,3.20
2017-12-01T12:46:14.109Z,3.20
2017-12-01T12:48:41.607Z,3.20
2017-12-01T12:51:09.885Z,3.00
2017-12-01T12:53:37.379Z,3.00
2017-12-01T12:56:04.880Z,3.00
2017-12-01T12:58:32.406Z,2.90
2017-12-01T13:00:59.993Z,2.90
2017-12-01T13:03:27.590Z,3.00
2017-12-01T13:05:55.996Z,3.20
2017-12-01T13:08:23.588Z,3.10
2017-12-01T13:10:51.196Z,3.10
2017-12-01T13:13:18.730Z,3.30
2017-12-01T13:15:47.057Z,3.40
2017-12-01T13:18:15.411Z,3.40
2017-12-01T13:20:42.938Z,3.30
2017-12-01T13:23:10.592Z,3.30
2017-12-01T13:25:38.159Z,3.30
2017-12-01T13:28:06.161Z,3.30
2017-12-01T13:30:33.664Z,3.20
2017-12-01T13:33:01.380Z,3.20
2017-12-01T13:35:28.896Z,3.20
2017-12-01T13:37:56.392Z,3.20
2017-12-01T13:40:23.971Z,3.30
2017-12-01T13:42:51.467Z,3.20
2017-12-01T13:45:19.068Z,3.10
2017-12-01T13:47:47.328Z,3.00
2017-12-01T13:50:15.620Z,3.00
2017-12-01T13:52:43.880Z,2.90
2017-12-01T13:55:12.166Z,2.90
2017-12-01T13:57:40.479Z,3.00
2017-12-01T14:00:08.013Z,2.90
2017-12-01T14:02:35.592Z,2.90
2017-12-01T14:05:03.109Z,2.90
2017-12-01T14:07:30.615Z,2.80
2017-12-01T14:09:58.161Z,2.80
2017-12-01T14:12:25.700Z,2.80
2017-12-01T14:14:53.985Z,2.80
2017-12-01T14:17:21.516Z,2.70
2017-12-01T14:19:49.033Z,2.80
2017-12-01T14:22:16.553Z,2.80
2017-12-01T14:24:44.816Z,2.70
2017-12-01T14:27:13.086Z,2.70
2017-12-01T14:29:41.352Z,2.60
2017-12-01T14:32:08.883Z,2.60
2017-12-01T14:34:36.386Z,2.60
2017-12-01T14:37:04.668Z,2.60
2017-12-01T14:39:32.940Z,2.60
2017-12-01T14:42:01.218Z,2.60
2017-12-01T14:44:29.479Z,2.60
2017-12-01T14:46:56.979Z,2.60
2017-12-01T14:49:24.529Z,2.50
2017-12-01T14:51:52.459Z,2.60
2017-12-01T14:54:19.952Z,2.50
2017-12-01T14:56:48.228Z,2.40
2017-12-01T14:59:16.479Z,2.40
2017-12-01T15:01:45.608Z,2.30
2017-12-01T15:04:13.109Z,2.30
2017-12-01T15:06:40.616Z,2.30
2017-12-01T15:09:08.118Z,2.30
2017-12-01T15:11:35.663Z,2.20
2017-12-01T15:14:03.161Z,2.20
2017-12-01T15:16:30.684Z,2.10
2017-12-01T15:18:58.184Z,2.10
2017-12-01T15:21:25.808Z,2.10
2017-12-01T15:23:53.296Z,2.10
2017-12-01T15:26:20.842Z,2.10
2017-12-01T15:28:48.332Z,2.10
2017-12-01T15:31:16.603Z,2.10
2017-12-01T15:33:44.871Z,2.10
2017-12-01T15:36:12.392Z,2.10
2017-12-01T15:38:39.894Z,2.10
2017-12-01T15:41:07.388Z,2.00
2017-12-01T15:43:34.888Z,2.00
2017-12-01T15:46:02.406Z,2.00
2017-12-01T15:48:29.902Z,1.90
2017-12-01T15:50:57.453Z,1.90
2017-12-01T15:53:24.939Z,1.90
2017-12-01T15:55:52.444Z,1.90
2017-12-01T15:58:19.939Z,1.80
2017-12-01T16:00:47.492Z,1.80
2017-12-01T16:03:14.998Z,1.80
2017-12-01T16:05:42.505Z,1.80
2017-12-01T16:08:10.014Z,1.70
2017-12-01T16:10:37.522Z,1.70
2017-12-01T16:13:05.016Z,1.60
2017-12-01T16:15:32.521Z,1.60
2017-12-01T16:18:00.021Z,1.60
2017-12-01T16:20:27.520Z,1.60
2017-12-01T16:22:55.037Z,1.60
2017-12-01T16:25:22.538Z,1.50
2017-12-01T16:27:50.051Z,1.50
2017-12-01T16:30:17.564Z,1.50
2017-12-01T16:32:51.155Z,1.40
2017-12-01T16:35:13.371Z,1.40
2017-12-01T16:37:40.916Z,1.40
2017-12-01T16:40:09.196Z,1.30
2017-12-01T16:42:36.737Z,1.30
2017-12-01T16:45:04.259Z,1.30
2017-12-01T16:47:31.768Z,1.30
2017-12-01T16:50:00.023Z,1.20
2017-12-01T16:52:27.545Z,1.20
2017-12-01T16:54:55.046Z,1.10
2017-12-01T16:57:22.560Z,1.10
2017-12-01T16:59:50.054Z,1.00
2017-12-01T17:02:17.569Z,1.10
2017-12-01T17:04:45.068Z,1.00
2017-12-01T17:07:12.579Z,1.00
2017-12-01T17:09:40.085Z,1.00
2017-12-01T17:12:07.692Z,1.00
2017-12-01T17:14:35.200Z,1.00
2017-12-01T17:17:03.456Z,0.80
2017-12-01T17:19:31.380Z,0.80
2017-12-01T17:21:59.700Z,0.80
2017-12-01T17:24:27.201Z,0.80
2017-12-01T17:26:54.707Z,0.80
2017-12-01T17:29:22.312Z,0.80
2017-12-01T17:31:49.826Z,0.70
2017-12-01T17:34:17.331Z,0.70
2017-12-01T17:36:44.903Z,0.70
2017-12-01T17:39:12.488Z,0.70
2017-12-01T17:41:40.009Z,0.60
2017-12-01T17:44:07.562Z,0.60
2017-12-01T17:46:35.125Z,0.60
2017-12-01T17:49:02.612Z,0.60
2017-12-01T17:51:30.879Z,0.60
2017-12-01T17:53:59.186Z,0.60
2017-12-01T17:56:26.684Z,0.50
2017-12-01T17:58:54.205Z,0.60
2017-12-01T18:01:21.708Z,0.60
2017-12-01T18:03:49.270Z,0.60
2017-12-01T18:06:16.892Z,0.60
2017-12-01T18:08:44.402Z,0.60
2017-12-01T18:11:11.906Z,0.60
2017-12-01T18:13:39.418Z,0.60
2017-12-01T18:16:06.930Z,0.60
2017-12-01T18:18:34.470Z,0.60
2017-12-01T18:21:01.975Z,0.50
2017-12-01T18:23:30.969Z,0.50
2017-12-01T18:25:58.500Z,0.50
2017-12-01T18:28:25.999Z,0.50
2017-12-01T18:30:54.453Z,0.50
2017-12-01T18:33:22.097Z,0.60
2017-12-01T18:35:49.630Z,0.50
2017-12-01T18:38:17.167Z,0.60
2017-12-01T18:40:44.676Z,0.60
2017-12-01T18:43:12.963Z,0.60
2017-12-01T18:45:40.525Z,0.60
2017-12-01T18:48:08.106Z,0.60
2017-12-01T18:50:35.600Z,0.60
2017-12-01T18:53:03.165Z,0.60
2017-12-01T18:55:30.677Z,0.70
2017-12-01T18:57:58.192Z,0.70
2017-12-01T19:00:25.687Z,0.70
2017-12-01T19:02:53.180Z,0.60
2017-12-01T19:05:21.476Z,0.60
2017-12-01T19:07:49.060Z,0.70
2017-12-01T19:10:16.551Z,0.60
2017-12-01T19:12:44.059Z,0.70
2017-12-01T19:15:11.619Z,0.60
2017-12-01T19:17:39.124Z,0.60
2017-12-01T19:20:06.645Z,0.60
2017-12-01T19:22:34.173Z,0.60
2017-12-01T19:25:01.727Z,0.60
2017-12-01T19:27:29.253Z,0.60
2017-12-01T19:29:56.776Z,0.60
2017-12-01T19:32:24.391Z,0.60
2017-12-01T19:34:51.900Z,0.60
2017-12-01T19:37:19.427Z,0.60
2017-12-01T19:39:47.715Z,0.60
2017-12-01T19:42:15.225Z,0.60
2017-12-01T19:44:42.792Z,0.60
2017-12-01T19:47:10.398Z,0.70
2017-12-01T19:49:37.992Z,0.70
2017-12-01T19:52:05.644Z,0.70
2017-12-01T19:54:33.147Z,0.60
2017-12-01T19:57:00.651Z,0.60
2017-12-01T19:59:28.149Z,0.60
2017-12-01T20:01:55.648Z,0.70
2017-12-01T20:04:23.242Z,0.70
2017-12-01T20:06:50.736Z,0.70
2017-12-01T20:09:18.224Z,0.70
2017-12-01T20:11:45.737Z,0.70
2017-12-01T20:14:13.236Z,0.70
2017-12-01T20:16:41.525Z,0.70
2017-12-01T20:19:09.064Z,0.70
2017-12-01T20:21:36.564Z,0.70
2017-12-01T20:24:04.092Z,0.70
2017-12-01T20:26:32.346Z,0.70
2017-12-01T20:29:00.935Z,0.80
2017-12-01T20:31:28.468Z,0.80
2017-12-01T20:33:56.020Z,0.80
2017-12-01T20:36:23.565Z,0.80
2017-12-01T20:38:51.056Z,0.80
2017-12-01T20:41:18.624Z,0.80
2017-12-01T20:43:46.892Z,0.90
2017-12-01T20:46:14.392Z,0.90
2017-12-01T20:48:41.894Z,0.90
2017-12-01T20:51:09.405Z,0.90
2017-12-01T20:53:36.902Z,1.10
2017-12-01T20:56:04.501Z,1.40
2017-12-01T20:58:32.757Z,1.30
2017-12-01T21:01:00.270Z,1.30
2017-12-01T21:03:27.781Z,1.30
2017-12-01T21:05:55.283Z,1.40
2017-12-01T21:08:22.776Z,1.40
2017-12-01T21:10:50.277Z,1.40
2017-12-01T21:13:18.540Z,1.50
2017-12-01T21:15:46.900Z,1.60
2017-12-01T21:18:15.218Z,1.70
2017-12-01T21:20:42.724Z,1.60
2017-12-01T21:23:10.335Z,1.90
2017-12-01T21:25:37.840Z,1.90
2017-12-01T21:28:05.329Z,1.80
2017-12-01T21:30:33.600Z,2.00
2017-12-01T21:33:01.341Z,2.00
2017-12-01T21:35:28.869Z,2.00
2017-12-01T21:37:56.365Z,2.00
2017-12-01T21:40:23.987Z,2.10
2017-12-01T21:42:51.512Z,2.00
2017-12-01T21:45:19.784Z,2.20
2017-12-01T21:47:47.319Z,2.20
2017-12-01T21:50:14.819Z,2.30
2017-12-01T21:52:42.332Z,2.20
2017-12-01T21:55:09.834Z,2.20
2017-12-01T21:57:38.123Z,1.80
2017-12-01T22:00:05.628Z,1.80
2017-12-01T22:02:33.145Z,1.70
2017-12-01T22:05:00.669Z,1.60
2017-12-01T22:07:28.943Z,1.50
2017-12-01T22:09:57.199Z,1.40
2017-12-01T22:12:25.639Z,1.40
2017-12-01T22:14:53.300Z,1.30
2017-12-01T22:17:20.868Z,1.30
2017-12-01T22:19:48.366Z,1.20
2017-12-01T22:22:15.874Z,1.20
2017-12-01T22:24:43.420Z,1.20
2017-12-01T22:27:10.932Z,1.10
2017-12-01T22:29:38.461Z,1.10
2017-12-01T22:32:05.996Z,1.10
2017-12-01T22:34:33.480Z,1.00
2017-12-01T22:37:00.981Z,1.00
2017-12-01T22:39:29.249Z,1.00
2017-12-01T22:41:56.757Z,1.00
2017-12-01T22:44:24.255Z,1.00
2017-12-01T22:46:51.757Z,1.00
2017-12-01T22:49:20.024Z,0.90
2017-12-01T22:51:48.293Z,0.90
2017-12-01T22:54:16.571Z,0.80
2017-12-01T22:56:44.856Z,0.80
2017-12-01T22:59:13.132Z,0.80
2017-12-01T23:01:41.411Z,0.90
2017-12-01T23:04:09.759Z,0.90
2017-12-01T23:06:37.264Z,0.90
2017-12-01T23:09:04.765Z,0.90
2017-12-01T23:11:33.036Z,1.00
2017-12-01T23:14:00.536Z,0.90
2017-12-01T23:16:28.031Z,1.00
2017-12-01T23:18:55.521Z,1.00
2017-12-01T23:21:23.039Z,1.00
2017-12-01T23:23:50.542Z,1.00
2017-12-01T23:26:18.057Z,1.00
2017-12-01T23:28:45.539Z,1.00
2017-12-01T23:31:13.073Z,0.90
2017-12-01T23:33:40.622Z,0.90
2017-12-01T23:36:08.141Z,0.90
2017-12-01T23:38:35.628Z,0.90
2017-12-01T23:41:03.146Z,1.00
2017-12-01T23:43:30.633Z,1.00
2017-12-01T23:45:58.920Z,1.00
2017-12-01T23:48:26.404Z,1.00
2017-12-01T23:50:53.920Z,1.10
2017-12-01T23:53:22.208Z,1.10
2017-12-01T23:55:50.492Z,1.00
2017-12-01T23:58:18.060Z,1.00
